Dubai, United Arab Emirates
Current Conditions -  °F | °C
As of 12:00 AM on Monday 26 Jan 2015 (Local Time) from OMDB Reporting Station
Clear Clear  
Wind Chill: 68°   Ceiling: Unl
Heat Index: 68°   Visibility: 6mi
Dew Point: 50°   Wind: 7mph
Humidity: 52%   Direction: 90°E
Pressure: 30.21"   Gusts: NA
Location:  25.27°N, 55.33°E
Report Text: OMDB 252000Z 09006KT 060V120 CAVOK 20/10 Q1023 NOSIG
Loading
Personal Weather Stations






























Interactive Weather Map New forecast layout! Learn more

10-Day Weather Forecast

Advertisements
Track Severe Weather on mobile